sensor_id;sensor_type;location;lat;lon;timestamp;pressure;altitude;pressure_sealevel;temperature;humidity
61484;BME280;47349;55.640;37.692;2023-08-06T00:01:21;99498.88;;;23.56;72.53
61484;BME280;47349;55.640;37.692;2023-08-06T00:04:53;99509.00;;;23.61;72.92
61484;BME280;47349;55.640;37.692;2023-08-06T00:08:12;99498.88;;;23.56;72.75
61484;BME280;47349;55.640;37.692;2023-08-06T00:11:37;99498.03;;;23.51;73.58
61484;BME280;47349;55.640;37.692;2023-08-06T00:14:37;99502.38;;;23.47;74.16
61484;BME280;47349;55.640;37.692;2023-08-06T00:17:20;99526.19;;;23.51;75.05
61484;BME280;47349;55.640;37.692;2023-08-06T00:20:16;99511.88;;;23.39;75.07
61484;BME280;47349;55.640;37.692;2023-08-06T00:23:00;99515.41;;;23.34;75.05
61484;BME280;47349;55.640;37.692;2023-08-06T00:25:44;99516.78;;;23.32;75.68
61484;BME280;47349;55.640;37.692;2023-08-06T00:28:28;99528.28;;;23.39;75.32
61484;BME280;47349;55.640;37.692;2023-08-06T00:31:09;99508.53;;;23.27;75.97
61484;BME280;47349;55.640;37.692;2023-08-06T00:33:52;99531.28;;;23.38;76.44
61484;BME280;47349;55.640;37.692;2023-08-06T00:36:34;99524.69;;;23.33;76.29
61484;BME280;47349;55.640;37.692;2023-08-06T00:39:21;99537.00;;;23.31;76.44
61484;BME280;47349;55.640;37.692;2023-08-06T00:42:24;99501.28;;;23.11;76.60
61484;BME280;47349;55.640;37.692;2023-08-06T00:45:16;99533.97;;;23.27;77.02
61484;BME280;47349;55.640;37.692;2023-08-06T00:47:59;99531.19;;;23.22;76.40
61484;BME280;47349;55.640;37.692;2023-08-06T00:51:00;99521.31;;;23.16;76.48
61484;BME280;47349;55.640;37.692;2023-08-06T00:54:04;99520.75;;;23.14;76.93
61484;BME280;47349;55.640;37.692;2023-08-06T00:56:58;99520.69;;;23.09;77.88
61484;BME280;47349;55.640;37.692;2023-08-06T00:59:42;99512.75;;;23.02;78.01
61484;BME280;47349;55.640;37.692;2023-08-06T01:02:43;99526.44;;;23.07;77.54
61484;BME280;47349;55.640;37.692;2023-08-06T01:05:25;99515.94;;;22.94;78.00
61484;BME280;47349;55.640;37.692;2023-08-06T01:08:32;99527.22;;;23.03;78.13
61484;BME280;47349;55.640;37.692;2023-08-06T01:11:46;99531.13;;;23.12;79.31
61484;BME280;47349;55.640;37.692;2023-08-06T01:15:09;99523.66;;;23.02;79.44
61484;BME280;47349;55.640;37.692;2023-08-06T01:17:54;99533.56;;;23.08;80.27
61484;BME280;47349;55.640;37.692;2023-08-06T01:20:38;99536.59;;;23.12;80.79
61484;BME280;47349;55.640;37.692;2023-08-06T01:23:20;99535.72;;;23.06;80.36
61484;BME280;47349;55.640;37.692;2023-08-06T01:31:51;99507.03;;;22.82;79.79
61484;BME280;47349;55.640;37.692;2023-08-06T01:34:34;99529.22;;;22.86;80.25
61484;BME280;47349;55.640;37.692;2023-08-06T01:37:17;99532.22;;;22.84;80.32
61484;BME280;47349;55.640;37.692;2023-08-06T01:39:58;99534.97;;;22.84;80.25
61484;BME280;47349;55.640;37.692;2023-08-06T01:42:40;99549.44;;;22.84;80.52
61484;BME280;47349;55.640;37.692;2023-08-06T01:45:21;99537.06;;;22.77;80.67
61484;BME280;47349;55.640;37.692;2023-08-06T01:48:03;99539.47;;;22.68;80.85
61484;BME280;47349;55.640;37.692;2023-08-06T01:50:44;99548.75;;;22.72;80.93
61484;BME280;47349;55.640;37.692;2023-08-06T01:53:25;99542.44;;;22.67;80.63
61484;BME280;47349;55.640;37.692;2023-08-06T01:56:27;99540.47;;;22.62;80.76
61484;BME280;47349;55.640;37.692;2023-08-06T01:59:09;99550.91;;;22.65;80.79
61484;BME280;47349;55.640;37.692;2023-08-06T02:01:50;99542.09;;;22.58;81.19
61484;BME280;47349;55.640;37.692;2023-08-06T02:04:32;99551.44;;;22.67;80.90
61484;BME280;47349;55.640;37.692;2023-08-06T02:07:15;99549.00;;;22.66;80.25
61484;BME280;47349;55.640;37.692;2023-08-06T02:10:00;99552.53;;;22.66;81.00
61484;BME280;47349;55.640;37.692;2023-08-06T02:12:45;99553.06;;;22.63;81.31
61484;BME280;47349;55.640;37.692;2023-08-06T02:15:52;99546.22;;;22.61;81.63
61484;BME280;47349;55.640;37.692;2023-08-06T02:19:20;99574.81;;;22.80;82.73
61484;BME280;47349;55.640;37.692;2023-08-06T02:23:44;99534.19;;;22.62;83.28
61484;BME280;47349;55.640;37.692;2023-08-06T02:28:34;99566.00;;;22.73;82.45
61484;BME280;47349;55.640;37.692;2023-08-06T02:32:54;99546.31;;;22.71;81.14
61484;BME280;47349;55.640;37.692;2023-08-06T02:36:01;99545.22;;;22.72;81.30
61484;BME280;47349;55.640;37.692;2023-08-06T02:38:45;99573.53;;;22.88;80.57
61484;BME280;47349;55.640;37.692;2023-08-06T02:41:30;99564.50;;;22.87;80.08
61484;BME280;47349;55.640;37.692;2023-08-06T02:44:14;99562.38;;;22.89;80.64
61484;BME280;47349;55.640;37.692;2023-08-06T02:46:57;99547.81;;;22.83;81.29
61484;BME280;47349;55.640;37.692;2023-08-06T02:49:41;99548.13;;;22.87;82.21
61484;BME280;47349;55.640;37.692;2023-08-06T02:52:34;99557.75;;;22.95;81.75
61484;BME280;47349;55.640;37.692;2023-08-06T02:55:48;99560.25;;;23.01;81.44
61484;BME280;47349;55.640;37.692;2023-08-06T02:59:26;99584.47;;;23.20;81.76
61484;BME280;47349;55.640;37.692;2023-08-06T03:02:29;99565.84;;;23.12;81.92
61484;BME280;47349;55.640;37.692;2023-08-06T03:06:24;99571.38;;;23.22;81.36
61484;BME280;47349;55.640;37.692;2023-08-06T03:09:40;99571.38;;;23.22;81.62
61484;BME280;47349;55.640;37.692;2023-08-06T03:12:33;99559.31;;;23.18;80.52
61484;BME280;47349;55.640;37.692;2023-08-06T03:15:36;99566.44;;;23.19;81.16
61484;BME280;47349;55.640;37.692;2023-08-06T03:18:45;99579.66;;;23.32;81.17
61484;BME280;47349;55.640;37.692;2023-08-06T03:21:27;99552.22;;;23.17;80.87
61484;BME280;47349;55.640;37.692;2023-08-06T03:24:09;99584.63;;;23.40;81.02
61484;BME280;47349;55.640;37.692;2023-08-06T03:26:57;99542.09;;;23.17;81.32
61484;BME280;47349;55.640;37.692;2023-08-06T03:29:41;99576.41;;;23.35;81.12
61484;BME280;47349;55.640;37.692;2023-08-06T03:32:27;99563.25;;;23.32;80.38
61484;BME280;47349;55.640;37.692;2023-08-06T03:35:19;99587.19;;;23.52;80.21
61484;BME280;47349;55.640;37.692;2023-08-06T03:38:02;99579.34;;;23.60;79.63
61484;BME280;47349;55.640;37.692;2023-08-06T03:40:46;99555.50;;;23.56;79.92
61484;BME280;47349;55.640;37.692;2023-08-06T03:43:29;99555.19;;;23.52;79.45
61484;BME280;47349;55.640;37.692;2023-08-06T03:46:21;99564.66;;;23.72;79.56
61484;BME280;47349;55.640;37.692;2023-08-06T03:49:06;99553.94;;;23.65;79.21
61484;BME280;47349;55.640;37.692;2023-08-06T03:51:48;99574.31;;;23.84;78.62
61484;BME280;47349;55.640;37.692;2023-08-06T03:54:29;99570.72;;;23.79;78.85
61484;BME280;47349;55.640;37.692;2023-08-06T03:57:11;99544.38;;;23.73;78.37
61484;BME280;47349;55.640;37.692;2023-08-06T04:29:06;99554.19;;;24.21;76.66
61484;BME280;47349;55.640;37.692;2023-08-06T04:31:55;99559.44;;;24.33;76.60
61484;BME280;47349;55.640;37.692;2023-08-06T04:38:16;99568.28;;;24.50;75.54
61484;BME280;47349;55.640;37.692;2023-08-06T04:56:35;99566.44;;;24.71;75.82
61484;BME280;47349;55.640;37.692;2023-08-06T04:59:17;99580.41;;;24.85;75.38
61484;BME280;47349;55.640;37.692;2023-08-06T05:02:01;99576.00;;;24.84;75.48
61484;BME280;47349;55.640;37.692;2023-08-06T05:07:56;99574.38;;;24.93;75.26
61484;BME280;47349;55.640;37.692;2023-08-06T05:10:42;99550.53;;;24.83;75.58
61484;BME280;47349;55.640;37.692;2023-08-06T05:13:24;99555.19;;;24.98;74.91
61484;BME280;47349;55.640;37.692;2023-08-06T05:16:09;99567.28;;;25.12;74.78
61484;BME280;47349;55.640;37.692;2023-08-06T05:58:47;99543.22;;;26.10;71.59
61484;BME280;47349;55.640;37.692;2023-08-06T19:07:16;99253.44;;;27.37;60.53
61484;BME280;47349;55.640;37.692;2023-08-06T19:10:26;99264.19;;;27.34;61.15
61484;BME280;47349;55.640;37.692;2023-08-06T20:09:29;99233.44;;;26.36;66.57
61484;BME280;47349;55.640;37.692;2023-08-06T20:12:07;99231.78;;;26.35;67.65
61484;BME280;47349;55.640;37.692;2023-08-06T20:14:39;99228.03;;;26.26;67.62
61484;BME280;47349;55.640;37.692;2023-08-06T20:37:18;99236.06;;;25.88;69.35
61484;BME280;47349;55.640;37.692;2023-08-06T22:21:05;99246.03;;;24.59;74.75
61484;BME280;47349;55.640;37.692;2023-08-06T23:06:01;99250.22;;;24.11;77.40
61484;BME280;47349;55.640;37.692;2023-08-06T23:09:12;99246.13;;;23.98;78.10
61484;BME280;47349;55.640;37.692;2023-08-06T23:11:42;99225.59;;;23.80;78.88
61484;BME280;47349;55.640;37.692;2023-08-06T23:14:12;99235.16;;;23.88;78.71
